Leonardo Rodrigues

Chefscout - Internacional
13 Aug 2028
Sonntag
Verarbeitung

Persönlichkeit

Anpassungsfähigkeit (14) Ehrgeiz (19) Kontroverse (1) Loyalität (8) Druck (6) Professionalität (10) Fairness (4) Temperament (5)

Profil

Trainerstil Demokratisch
Lizenz Kontinentale B
Entschlossenheit 8
Menschenführung 7
Motivation 7
Disziplin 11
Arbeitszufriedenheit
84%
Ermüdung
0%
Rolle Chefscout
Gehalt 24.4K p/W
Vertrag 14.03.2030

Leistung

Verhalten Gut
Trainingseffektivität
39%
Spielerentwicklung
55%
Verletzungsprävention
45%
Taktische Umsetzung
50%

Letzte Ereignisse

Nahm an einer Scouting-Besprechung teil jetzt
Empfahl ein Transferziel jetzt
Nahm an einer Scouting-Besprechung teil 7T her
Empfahl ein Transferziel 7T her
Nahm an einer Scouting-Besprechung teil 7T her
Nahm an einer Scouting-Besprechung teil 7T her
Nahm an einer Scouting-Besprechung teil 14T her
Nahm an einer Scouting-Besprechung teil 14T her

Aktuell beobachtet

248
Spieler Verein Status Fähigkeit Vertrauen Beobachtet Zuletzt beobachtet Letzte Stimme
Kasey McAteer Barnsley Aktiv 131 / 139 40% 4 18.07.2028 -
Abdoul Ouattara Port Vale Verhandlung 143 / 141 40% 3 18.07.2028 -
Emile Smith Rowe Cardiff City Aktiv 166 / 158 40% 6 10.07.2028 -
Malick Fofana Sunderland Aktiv 167 / 155 40% 6 10.07.2028 -
Nicolas Jackson Aston Villa Aktiv 146 / 155 40% 6 12.06.2028 -
Thiago Brentford Aktiv 146 / 153 40% 2 12.06.2028 -
Ben Gannon Doak Charlton Athletic Aktiv 149 / 152 40% 10 30.05.2028 -
Samuel Edozie Southampton Aktiv 142 / 135 40% 2 29.05.2028 -
Dango Ouattara Leicester City Aktiv 145 / 153 40% 12 23.05.2028 -
Kevin Fulham Aktiv 151 / 152 40% 3 22.05.2028 -
Carlos Alcaraz Stoke City Aktiv 140 / 149 40% 4 17.05.2028 -
Jaden Philogene Wolverhampton Aktiv 140 / 144 40% 6 12.05.2028 -
Mikkel Damsgaard Brentford Aktiv 167 / 154 40% 4 10.05.2028 -
Borja Sainz Udinese Aktiv 150 / 149 40% 2 09.05.2028 -
Tyreece Campbell Charlton Athletic Verloren 115 / 124 40% 1 06.05.2028 -
Moisés Caicedo Chelsea Aktiv 179 / 172 40% 2 03.05.2028 -
João Pedro Chelsea Aktiv 158 / 156 40% 3 28.04.2028 -
Mohamed-Ali Cho Hull City Aktiv 148 / 142 40% 6 20.04.2028 -
Gabriel Mec Feirense Aktiv 115 / 127 40% 3 16.04.2028 -
Chemsdine Talbi Sunderland Aktiv 155 / 154 40% 2 13.04.2028 -
Erick Pulga Bahia Aktiv 146 / 131 40% 7 13.04.2028 -
Yeremy Pino Crystal Palace Aktiv 146 / 156 40% 4 03.04.2028 -
Rodrigo Nestor Bahia Aktiv 121 / 130 40% 2 02.04.2028 Mehr Infos nötig
Henry Mosquera Bragantino Aktiv 128 / 131 40% 5 27.03.2028 Beobachten
Marino Hinestroza Bahia Aktiv 143 / 130 40% 7 27.03.2028 -
Callum Hudson-Odoi Nottingham Forest Aktiv 156 / 152 40% 1 24.03.2028 -
Andrés Gómez Vasco da Gama Aktiv 144 / 141 40% 2 20.03.2028 -
Benjamín Rollheiser Santos Aktiv 132 / 132 40% 3 10.03.2028 -
Agustín Giay Palmeiras Aktiv 135 / 134 40% 3 03.03.2028 -
Cristian Medina Botafogo Aktiv 121 / 130 40% 1 02.03.2028 -
Fábio Carvalho Brentford Aktiv 160 / 145 40% 3 27.02.2028 -
Pedro de la Vega Columbus Crew Aktiv 132 / 137 40% 5 26.02.2028 -
Maurício Palmeiras Aktiv 127 / 135 40% 3 26.02.2028 -
Wesley Al-Nassr Aktiv 129 / 123 40% 1 25.02.2028 -
Gustavo Neves Bragantino Aktiv 133 / 133 40% 4 23.02.2028 -
Danilo Botafogo Aktiv 149 / 142 40% 3 20.02.2028 -
Antony Portland Timbers Aktiv 123 / 134 40% 2 19.02.2028 -
Álvaro Barreal Atlético Mineiro Aktiv 131 / 132 40% 1 10.02.2028 -
Liel Abada Inter Miami CF Aktiv 141 / 136 40% 2 03.02.2028 -
Franco Vedoya Central Norte Aktiv 124 / 115 40% 1 27.01.2028 -
Rodrigo González Mitre Aktiv 126 / 117 40% 2 25.01.2028 -
Iñaki Larthirigoyen San Telmo Aktiv 129 / 119 40% 1 22.01.2028 -
Vinicius Zanocelo Ceará Aktiv 125 / 125 40% 1 21.01.2028 -
Gabriel Pec Cruzeiro Aktiv 129 / 133 40% 2 19.01.2028 -
Bénie Traoré New York City Aktiv 127 / 129 40% 1 15.01.2028 -
Alex Luna Instituto Aktiv 129 / 132 40% 2 13.01.2028 -
Telasco Segovia Inter Miami CF Aktiv 122 / 133 40% 2 11.01.2028 -
Alejo Cruz Juventud Aktiv 123 / 120 40% 1 11.01.2028 -
David Da Costa Portland Timbers Aktiv 136 / 130 40% 1 08.01.2028 -
Lucas Villalba Botafogo Aktiv 118 / 128 40% 1 08.12.2027 -
Kévin Denkey FC Cincinnati Aktiv 133 / 126 40% 1 08.12.2027 -
Eric Ramires Bragantino Aktiv 114 / 125 51% 1 07.12.2027 -
Ousmane Diomande Nottingham Forest Aktiv 175 / 158 40% 4 02.12.2027 -
Bafodé Diakité Plymouth Argyle Aktiv 153 / 144 40% 1 02.12.2027 -
Lautaro Di Lollo Boca Juniors Aktiv 146 / 134 40% 4 28.11.2027 -
El Hadji Malick Diouf Inter Aktiv 142 / 152 40% 2 28.11.2027 -
Ignacio Perruzzi San Lorenzo Aktiv 124 / 128 40% 3 26.11.2027 -
Jhon Solís Birmingham Aktiv 137 / 136 40% 1 26.11.2027 -
Kauã Moraes Flamengo Aktiv 120 / 128 40% 1 20.11.2027 -
Alexsander Atlético Mineiro Aktiv 139 / 131 40% 2 18.11.2027 -
Álex Valle Boca Juniors Aktiv 132 / 142 40% 2 18.11.2027 -
Lucas Sanabria LA Galaxy Aktiv 131 / 134 40% 3 17.11.2027 -
Honest Ahanor Atalanta Aktiv 119 / 140 40% 1 17.11.2027 -
Brooke Norton-Cuffy Hull City Aktiv 153 / 147 40% 6 15.11.2027 -
Lamare Bogarde Reading Aktiv 140 / 138 40% 4 15.11.2027 -
Breno Bidon Corinthians Aktiv 128 / 132 40% 2 13.11.2027 -
Gonçalo Nogueira Vitoria Guimaraes Aktiv 128 / 127 40% 1 12.11.2027 -
Alex Scott Bournemouth Aktiv 156 / 159 40% 5 11.11.2027 -
Michael Kayode Brentford Aktiv 159 / 153 40% 4 09.11.2027 -
Nicolás Romero Minnesota United FC Aktiv 127 / 131 40% 3 08.11.2027 -
Samuele Angori Red Bull Salzburg Aktiv 128 / 139 40% 1 08.11.2027 -
Andrey Santos Bolton Wanderers Aktiv 138 / 146 40% 1 06.11.2027 -
Ayden Heaven Portsmouth Aktiv 151 / 149 40% 1 05.11.2027 -
Toby Collyer West Bromwich Albion Aktiv 122 / 139 40% 2 31.10.2027 -
Ronnie Edwards Queens Park Rangers Aktiv 122 / 133 40% 2 31.10.2027 -
Levi Colwill Chelsea Aktiv 170 / 163 40% 4 28.10.2027 -
Yehor Yarmoliuk Brentford Aktiv 146 / 158 40% 2 27.10.2027 -
Fredrik Sjøvold Bodo/Glimt Aktiv 155 / 138 40% 2 20.10.2027 -
Max Johnston Derby County Aktiv 132 / 136 40% 2 16.10.2027 -
Yasin Ayari Middlesbrough Aktiv 137 / 149 40% 3 15.10.2027 -
Carlos Baleba Norwich City Aktiv 144 / 160 40% 1 15.10.2027 -
César Pérez Defensa y Justicia Aktiv 116 / 126 40% 3 13.10.2027 -
Henrik Falchener Viking Aktiv 108 / 127 40% 2 11.10.2027 -
Arthur Peixoto Astra Aktiv 142 / 128 40% 4 10.10.2027 -
Shea Charles Southampton Aktiv 148 / 148 40% 2 09.10.2027 -
Nectar Triantis Minnesota United FC Aktiv 116 / 132 40% 2 06.10.2027 -
Adam Wharton Crystal Palace Aktiv 175 / 159 40% 3 30.09.2027 -
Lewis Hall Newcastle United Aktiv 166 / 154 40% 2 24.09.2027 -
Santiago González Tigre Aktiv 120 / 129 40% 1 24.09.2027 -
Robert Renan Zenit Aktiv 114 / 132 40% 3 22.09.2027 -
Cauan Barros Flamengo Aktiv 119 / 128 40% 3 21.09.2027 -
Roméo Lavia Chelsea Aktiv 136 / 160 40% 1 20.09.2027 -
Habib Diarra Sunderland Aktiv 153 / 147 40% 1 16.09.2027 -
Kaiki Cruzeiro Aktiv 148 / 131 40% 2 14.09.2027 -
Malo Gusto Chelsea Aktiv 140 / 155 40% 1 11.09.2027 -
Tino Livramento Newcastle United Aktiv 169 / 164 40% 1 11.09.2027 -
Patrick Dorgu Bristol City Aktiv 162 / 152 40% 1 09.09.2027 -
Ben Nelson Leicester City Aktiv 140 / 142 40% 2 06.09.2027 -
Mbekezeli Mbokazi Chicago Fire Aktiv 110 / 133 40% 1 29.08.2027 -
Juanlu Bournemouth Aktiv 153 / 152 40% 2 28.08.2027 -
Mamadou Coulibaly Al Jazira Aktiv 119 / 131 40% 2 27.08.2027 -
Danilo Veiga Lecce Aktiv 133 / 129 40% 2 19.08.2027 -
Bjorn Meijer Sampdoria Aktiv 113 / 126 40% 1 18.08.2027 -
Cesare Casadei Torino Aktiv 147 / 145 40% 1 17.08.2027 -
Nicolò Bertola Udinese Aktiv 159 / 144 40% 1 11.08.2027 -
Junior Tchamadeu Stoke City Aktiv 146 / 127 40% 1 08.08.2027 -
Harvey Vale Queens Park Rangers Aktiv 125 / 127 40% 1 04.08.2027 -
Justin Devenny Stoke City Aktiv 145 / 130 40% 1 12.07.2027 -
Destiny Udogie Tottenham Aktiv 152 / 157 40% 1 07.07.2027 -
Quinten Timber Crystal Palace Aktiv 154 / 157 40% 1 29.06.2027 -
Jacob Greaves Ipswich Town Aktiv 153 / 140 40% 1 29.06.2027 -
Mats Wieffer Brighton Aktiv 145 / 148 40% 1 02.06.2027 -
Thiago Almada LOSC Lille Aktiv 145 / 146 69% 1 01.06.2027 Befürworten
Dara O'Shea Ipswich Town Aktiv 124 / 137 40% 1 30.05.2027 -
Jarrad Branthwaite Everton Aktiv 158 / 158 40% 1 30.05.2027 -
Jørgen Strand Larsen Brighton Aktiv 153 / 144 40% 2 26.05.2027 -
John McGinn Aston Villa Aktiv 152 / 142 40% 1 26.05.2027 -
Isaiah Jones Luton Town Aktiv 117 / 125 40% 1 24.05.2027 -
Georginio Rutter Brighton Aktiv 145 / 148 40% 4 21.05.2027 -
Giacomo Raspadori Atalanta Aktiv 150 / 151 40% 3 19.05.2027 -
Amadou Onana Aston Villa Aktiv 145 / 158 40% 2 16.05.2027 -
Jason Knight Bristol City Aktiv 115 / 124 40% 1 15.05.2027 -
Joe Gelhardt Hull City Aktiv 142 / 130 40% 2 14.05.2027 -
Manu Koné AS Roma Aktiv 178 / 159 40% 2 13.05.2027 -
Florentino Luís Ipswich Town Aktiv 127 / 140 40% 1 13.05.2027 -
Harry Wilson Leeds United Aktiv 147 / 146 40% 1 08.05.2027 -
Óscar Mingueza Crystal Palace Aktiv 137 / 146 40% 2 05.05.2027 -
Marcus Edwards Burnley Aktiv 126 / 138 40% 1 05.05.2027 -
Ismaïla Sarr Crystal Palace Aktiv 144 / 146 40% 1 04.05.2027 -
Adam Randell Bristol City Aktiv 123 / 132 40% 1 04.05.2027 -
Maxence Lacroix Chelsea Aktiv 145 / 144 40% 1 04.05.2027 -
Brian Brobbey Sunderland Aktiv 152 / 146 40% 2 02.05.2027 -
Taty Castellanos West Ham United Aktiv 148 / 144 40% 3 01.05.2027 -
Tammy Abraham Aston Villa Aktiv 148 / 139 40% 4 01.05.2027 -
Jarrod Bowen West Ham United Aktiv 153 / 149 40% 1 30.04.2027 -
Gianluca Scamacca Atalanta Aktiv 138 / 147 40% 5 26.04.2027 -
Kevin Schade Chelsea Aktiv 143 / 155 40% 1 26.04.2027 -
Gonçalo Ramos AC Milan Aktiv 157 / 156 40% 2 25.04.2027 -
Soungoutou Magassa West Ham United Aktiv 130 / 134 40% 1 23.04.2027 -
Khéphren Thuram Juventus Aktiv 144 / 160 40% 1 16.04.2027 -
Diego Enríquez Sporting Cristal Aktiv 137 / 134 40% 1 16.04.2027 -
Joseph Leclercq Tottenham Aktiv 165 / 158 40% 1 16.04.2027 -
Eduardo Lozano Botafogo Aktiv 148 / 146 40% 5 11.04.2027 -
Ollie Watkins Al-Hilal Aktiv 159 / 145 40% 6 08.04.2027 -
Che Adams Torino Aktiv 126 / 140 40% 9 08.04.2027 -
Welington Southampton Aktiv 117 / 123 40% 1 07.04.2027 -
Piotr Zieliński Inter Aktiv 154 / 149 40% 1 07.04.2027 -
Pedro Flamengo Aktiv 142 / 145 40% 11 06.04.2027 -
Oli McBurnie Hull City Aktiv 131 / 134 40% 2 02.04.2027 -
Hidemasa Morita Hull City Aktiv 137 / 145 40% 1 02.04.2027 -
Leon Goretzka Aston Villa Aktiv 157 / 157 40% 1 31.03.2027 -
Roberto Fernández Braga Aktiv 124 / 138 40% 7 27.03.2027 -
Marcelo Allende Mamelodi Sundowns Aktiv 140 / 132 40% 1 27.03.2027 -
Robin Roefs Sunderland Aktiv 160 / 151 40% 3 26.03.2027 -
João Carvalho Estoril Praia Aktiv 138 / 128 40% 2 24.03.2027 -
Carlos Forbs Club Brugge Aktiv 142 / 137 40% 5 24.03.2027 -
Sorriso Famalicao Aktiv 139 / 127 40% 1 19.03.2027 -
Steven Bergwijn Al-Ittihad Aktiv 133 / 144 40% 11 18.03.2027 -
André-Franck Zambo Anguissa Napoli Aktiv 167 / 155 40% 1 17.03.2027 -
Matthew Targett Hull City Aktiv 136 / 133 40% 1 17.03.2027 -
Mateo Pellegrino Fiorentina Aktiv 125 / 141 40% 5 12.03.2027 -
Rodrigo Muniz Fulham Aktiv 130 / 147 40% 2 10.03.2027 -
Jean-Baptiste Gorby Braga Aktiv 125 / 132 40% 2 10.03.2027 -
Milan van Ewijk Coventry City Aktiv 129 / 138 40% 1 10.03.2027 -
João Palhinha Benfica Aktiv 157 / 157 40% 4 01.03.2027 -
Mathias De Amorim Famalicao Aktiv 112 / 138 40% 3 01.03.2027 -
Gianluca Prestianni Benfica Aktiv 151 / 140 40% 2 01.03.2027 -
Santi García Gil Vicente Aktiv 142 / 136 40% 1 01.03.2027 -
Mojmír Chytil Slavia Prague Aktiv 121 / 127 40% 3 28.02.2027 -
Franculino Brighton Aktiv 124 / 134 40% 1 28.02.2027 -
Fredrik Aursnes Benfica Aktiv 145 / 151 40% 3 27.02.2027 -
Tariq Lamptey Queens Park Rangers Aktiv 129 / 134 40% 1 27.02.2027 -
Kenny Tete Fulham Aktiv 148 / 143 40% 2 25.02.2027 -
Jan Bednarek Porto Aktiv 134 / 142 40% 2 25.02.2027 -
Enzo Barrenechea Benfica Aktiv 140 / 142 40% 2 19.02.2027 -
Nuno Santos Sporting CP Aktiv 158 / 144 40% 1 11.02.2027 -
Andrea Pinamonti Lazio Aktiv 129 / 129 40% 2 08.02.2027 -
Carlos Álvarez Club America Aktiv 129 / 141 40% 1 08.02.2027 -
Pablo Rosario Porto Aktiv 154 / 140 40% 3 07.02.2027 -
Fran Vieites Walsall Aktiv 116 / 113 40% 2 07.02.2027 -
Léo Ortiz Flamengo Aktiv 129 / 143 40% 1 06.02.2027 -
Tomás Araújo Benfica Aktiv 159 / 148 40% 1 06.02.2027 -
Folarin Balogun Monaco Aktiv 126 / 133 40% 2 02.02.2027 -
Esteban Lepaul Stade Rennais Aktiv 148 / 143 40% 2 02.02.2027 -
Geny Sporting CP Aktiv 141 / 135 40% 1 30.01.2027 -
Amine Gouiri Olympique de Marseille Aktiv 155 / 136 40% 4 28.01.2027 -
Yoane Wissa Newcastle United Aktiv 145 / 136 40% 4 27.01.2027 -
Petar Musa FC Dallas Aktiv 124 / 140 40% 2 27.01.2027 -
Hamza Igamane LOSC Lille Aktiv 147 / 142 40% 2 25.01.2027 -
Alexey Miranchuk Atlanta United FC Aktiv 127 / 134 40% 4 21.01.2027 -
Nordi Mukiele Sunderland Aktiv 161 / 150 40% 2 18.01.2027 -
Luís Esteves Atlas Aktiv 148 / 126 40% 1 18.01.2027 -
André Wolverhampton Aktiv 133 / 144 40% 1 14.01.2027 -
Memphis Depay Corinthians Aktiv 145 / 144 40% 1 09.01.2027 -
Mario Dorgeles Braga Aktiv 133 / 138 40% 1 08.01.2027 -
Matheuzinho Corinthians Aktiv 126 / 132 40% 1 05.01.2027 -
Pepê Porto Aktiv 148 / 138 40% 3 31.12.2026 -
Lukas Jensen Millwall Aktiv 114 / 124 40% 1 26.12.2026 -
Wesley Saïd RC Lens Aktiv 139 / 136 40% 1 22.12.2026 -
Gustavo Cazonatti Mirassol Aktiv 110 / 122 51% 1 21.12.2026 -
Dwight McNeil Crystal Palace Aktiv 127 / 137 40% 1 21.12.2026 -
Leo Ceara Kashima Antlers Aktiv 157 / 139 40% 2 14.12.2026 -
Yehvann Diouf OGC Nice Aktiv 147 / 132 40% 1 07.12.2026 -
Anthony Patterson Wrexham Aktiv 114 / 135 40% 1 07.12.2026 -
Odsonne Édouard Olympique Lyonnais Aktiv 149 / 141 40% 1 29.11.2026 -
Gérson Cruzeiro Aktiv 152 / 139 40% 1 28.11.2026 -
Heorhii Sudakov Benfica Aktiv 138 / 152 40% 1 27.11.2026 -
Martinelli Fluminense Aktiv 133 / 144 40% 2 25.11.2026 -
Dodi Lukébakio Benfica Aktiv 127 / 139 40% 7 24.11.2026 -
Caio Alexandre Bahia Aktiv 139 / 140 40% 1 22.11.2026 -
Victor Froholdt Porto Aktiv 136 / 152 40% 1 18.11.2026 -
Samuel Dahl Benfica Aktiv 126 / 136 40% 1 15.11.2026 -
Dominic Solanke Tottenham Aktiv 139 / 153 40% 1 12.11.2026 -
Alejandro Zendejas Club America Aktiv 134 / 144 40% 1 07.11.2026 -
Mathys Tel Tottenham Aktiv 152 / 146 40% 1 30.10.2026 -
Alan Varela Porto Aktiv 128 / 138 40% 2 29.10.2026 -
Agustín Palavecino Cruz Azul Aktiv 150 / 133 40% 1 28.10.2026 -
Rodrigo Garro Corinthians Aktiv 132 / 130 40% 1 25.10.2026 -
Alberto Costa Porto Aktiv 130 / 135 40% 2 24.10.2026 -
Lucas Paquetá Flamengo Aktiv 143 / 143 40% 1 22.10.2026 -
Noah Okafor Leeds United Aktiv 136 / 141 40% 2 20.10.2026 -
Donyell Malen AS Roma Aktiv 142 / 147 40% 2 13.10.2026 -
Pau Víctor Braga Aktiv 120 / 131 40% 1 10.10.2026 -
Emanuel Emegha Chelsea Aktiv 122 / 143 40% 1 09.10.2026 -
Eddie Nketiah Crystal Palace Aktiv 121 / 132 40% 1 09.10.2026 -
Nicolás de la Cruz Flamengo Aktiv 136 / 132 40% 1 08.10.2026 -
Allan Saint-Maximin Charlotte Football Club Aktiv 149 / 132 40% 1 08.10.2026 -
Alexis Vega Feyenoord Aktiv 145 / 138 40% 2 05.10.2026 -
Renan Lodi Atlético Mineiro Aktiv 140 / 138 40% 1 04.10.2026 -
Erik Lira Cruz Azul Aktiv 135 / 135 40% 1 04.10.2026 -
Kasper Dolberg Ajax Aktiv 146 / 134 40% 1 01.10.2026 -
Iván Fresneda Sporting CP Aktiv 121 / 140 40% 3 27.09.2026 -
Hwang In-Beom Porto Aktiv 150 / 148 40% 1 27.09.2026 -
Cristian Uribe Monaco Aktiv 166 / 145 40% 1 27.09.2026 -
Álvaro Martínez Moreirense Aktiv 105 / 108 40% 1 12.09.2026 -
Nicolò Zaniolo Udinese Aktiv 124 / 148 40% 2 10.09.2026 -
Matheus Pereira Cruzeiro Aktiv 145 / 137 40% 1 05.09.2026 -
Mateja Stjepanović Moreirense Aktiv 115 / 131 40% 1 02.09.2026 -
Andreas Schjelderup Benfica Aktiv 122 / 143 40% 1 02.09.2026 -
William Gomes Porto Aktiv 121 / 145 40% 2 28.08.2026 -
Igor Paixão Olympique de Marseille Aktiv 134 / 142 40% 1 22.08.2026 -
Ricardo Horta Braga Aktiv 133 / 145 40% 1 19.08.2026 -
Joshua Zirkzee Manchester United Aktiv 129 / 140 40% 3 18.08.2026 -
Lisandro Martínez Ajax Aktiv 151 / 158 40% 1 18.08.2026 -
Ayase Ueda LOSC Lille Aktiv 150 / 139 40% 1 18.08.2026 -
Luis Suárez Sporting CP Aktiv 172 / 161 40% 1 08.08.2026 -
Pau Torres Aston Villa Aktiv 146 / 149 40% 1 07.08.2026 -
Christian Pulisic AC Milan Aktiv 179 / 162 40% 1 02.08.2026 -